Time;durP1;ratioP1;P1;durP2;ratioP2;P2;SDS_P1;SDS_P2;PMS_P1;PMS_P2;Temp;Humidity;BMP_temperature;BMP_pressure;BME280_temperature;BME280_humidity;BME280_pressure;Samples;Min_cycle;Max_cycle;Signal;HPM_P1;HPM_P2
2022/09/26 00:02:08;;;;;;;0.32;0.32;;;13.10;99.90;;;;;;4408042;32;20470;-74
2022/09/26 00:04:34;;;;;;;0.40;0.40;;;13.10;99.90;;;;;;4389398;32;20098;-74
2022/09/26 00:06:59;;;;;;;0.40;0.40;;;13.10;99.90;;;;;;4407743;32;20130;-75
2022/09/26 00:09:26;;;;;;;0.30;0.30;;;13.10;99.90;;;;;;4406874;32;20540;-75
2022/09/26 00:11:53;;;;;;;0.32;0.32;;;13.00;99.90;;;;;;4406916;32;20094;-74
2022/09/26 00:14:22;;;;;;;0.20;0.20;;;13.10;99.90;;;;;;4407377;32;20509;-74
2022/09/26 00:16:48;;;;;;;0.40;0.40;;;13.10;99.90;;;;;;4407766;32;20110;-75
2022/09/26 00:19:15;;;;;;;4.10;1.30;;;13.10;99.90;;;;;;4406328;32;20086;-75
2022/09/26 00:21:41;;;;;;;0.40;0.40;;;13.00;99.90;;;;;;4408743;32;20069;-75
2022/09/26 00:24:07;;;;;;;0.28;0.28;;;13.00;99.90;;;;;;4413934;32;20561;-75
2022/09/26 00:26:34;;;;;;;0.32;0.32;;;12.90;99.90;;;;;;4413933;32;20078;-74
2022/09/26 00:29:03;;;;;;;0.40;0.40;;;12.90;99.90;;;;;;4415064;32;20078;-74
2022/09/26 00:31:31;;;;;;;0.30;0.30;;;12.90;99.90;;;;;;4417023;32;20193;-75
2022/09/26 00:33:57;;;;;;;0.35;0.35;;;12.80;99.90;;;;;;4397064;32;20544;-75
2022/09/26 00:36:24;;;;;;;0.30;0.30;;;12.90;99.90;;;;;;4414397;32;20394;-75
2022/09/26 00:38:49;;;;;;;1.60;0.88;;;12.80;99.90;;;;;;4414859;32;20113;-75
2022/09/26 00:41:15;;;;;;;1.10;1.05;;;12.90;99.90;;;;;;4413299;32;20085;-74
2022/09/26 00:43:52;;;;;;;0.40;0.40;;;12.90;99.90;;;;;;4410890;32;20473;-74
2022/09/26 00:46:38;;;;;;;0.25;0.25;;;12.80;99.90;;;;;;4414008;32;20469;-74
2022/09/26 00:49:07;;;;;;;0.50;0.50;;;12.80;99.90;;;;;;4412342;32;20094;-74
2022/09/26 00:51:35;;;;;;;1.80;1.27;;;12.80;99.90;;;;;;4414776;32;20101;-74
2022/09/26 00:54:01;;;;;;;0.40;0.40;;;12.80;99.90;;;;;;4413585;32;20066;-75
2022/09/26 00:56:32;;;;;;;0.40;0.40;;;12.80;99.90;;;;;;4413664;32;20066;-75
2022/09/26 00:59:07;;;;;;;0.55;0.55;;;12.70;99.90;;;;;;4413911;32;20082;-75
2022/09/26 01:01:33;;;;;;;0.47;0.47;;;12.70;99.90;;;;;;4412198;32;20158;-75
2022/09/26 01:04:00;;;;;;;0.30;0.30;;;12.70;99.90;;;;;;4397873;32;20523;-76
2022/09/26 01:06:26;;;;;;;0.40;0.40;;;12.70;99.90;;;;;;4412419;32;20124;-76
2022/09/26 01:08:57;;;;;;;0.40;0.40;;;12.70;99.90;;;;;;4413067;32;20206;-75
2022/09/26 01:11:23;;;;;;;0.30;0.30;;;12.70;99.90;;;;;;4414033;32;20425;-75
2022/09/26 01:13:51;;;;;;;0.45;0.45;;;12.70;99.90;;;;;;4416305;32;20073;-76
2022/09/26 01:16:17;;;;;;;0.60;0.60;;;12.70;99.90;;;;;;4411929;32;20092;-75
2022/09/26 01:18:43;;;;;;;0.40;0.40;;;12.60;99.90;;;;;;4415022;32;20534;-75
2022/09/26 01:21:45;;;;;;;0.35;0.35;;;12.60;99.90;;;;;;4414020;32;20110;-75
2022/09/26 01:24:37;;;;;;;0.30;0.30;;;12.70;99.90;;;;;;4406810;32;20101;-75
2022/09/26 01:27:24;;;;;;;0.50;0.50;;;12.70;99.90;;;;;;4399749;32;20105;-75
2022/09/26 01:30:11;;;;;;;0.40;0.40;;;12.70;99.90;;;;;;4400023;32;20168;-74
2022/09/26 01:33:02;;;;;;;0.30;0.30;;;12.70;99.90;;;;;;4399374;32;20088;-74
2022/09/26 01:35:54;;;;;;;0.40;0.40;;;12.70;99.90;;;;;;4391385;32;20081;-74
2022/09/26 01:38:46;;;;;;;0.70;0.70;;;12.70;99.90;;;;;;4403609;32;20081;-75
2022/09/26 01:41:24;;;;;;;0.50;0.50;;;12.70;99.90;;;;;;4401098;32;20101;-75
2022/09/26 01:44:05;;;;;;;0.37;0.37;;;12.70;99.90;;;;;;4415156;32;21338;-75
2022/09/26 01:46:40;;;;;;;;;;;12.70;99.90;;;;;;4412192;32;20093;-75
2022/09/26 01:49:29;;;;;;;0.65;0.45;;;12.80;99.90;;;;;;4411325;32;19941;-75
2022/09/26 01:52:12;;;;;;;1.27;0.60;;;12.80;99.90;;;;;;4410560;32;20141;-74
2022/09/26 01:54:44;;;;;;;0.40;0.40;;;12.70;99.90;;;;;;4411307;32;20092;-75
2022/09/26 01:57:16;;;;;;;0.75;0.40;;;12.70;99.90;;;;;;4412338;32;20073;-75
2022/09/26 01:59:50;;;;;;;0.30;0.30;;;12.70;99.90;;;;;;4409964;32;20074;-75
2022/09/26 02:02:20;;;;;;;0.37;0.37;;;12.70;99.90;;;;;;4412755;32;20057;-75
2022/09/26 02:04:48;;;;;;;;;;;12.80;99.90;;;;;;4399729;32;20053;-75
2022/09/26 02:07:19;;;;;;;0.45;0.40;;;12.80;99.90;;;;;;4413745;32;19968;-75
2022/09/26 02:09:52;;;;;;;0.88;0.68;;;12.80;99.90;;;;;;4413403;32;20197;-75
2022/09/26 02:12:22;;;;;;;0.40;0.40;;;12.80;99.90;;;;;;4415463;32;20077;-75
2022/09/26 02:14:50;;;;;;;0.40;0.40;;;12.80;99.90;;;;;;4412487;32;20159;-75
2022/09/26 02:17:21;;;;;;;0.52;0.40;;;12.80;99.90;;;;;;4413456;32;20114;-74
2022/09/26 02:19:56;;;;;;;0.40;0.40;;;12.90;99.90;;;;;;4415954;32;20093;-75
2022/09/26 02:22:23;;;;;;;1.12;1.12;;;12.80;99.90;;;;;;4412555;32;20073;-75
2022/09/26 02:24:48;;;;;;;0.85;0.40;;;12.90;99.90;;;;;;4406691;32;20113;-75
2022/09/26 02:27:14;;;;;;;0.30;0.30;;;12.90;99.90;;;;;;4406115;32;20070;-74
2022/09/26 02:29:40;;;;;;;0.47;0.47;;;12.90;99.90;;;;;;4409471;32;20575;-76
2022/09/26 02:32:14;;;;;;;1.30;0.40;;;12.90;99.90;;;;;;4406523;32;20086;-75
2022/09/26 02:34:41;;;;;;;0.40;0.40;;;12.90;99.90;;;;;;4390571;32;20088;-75
2022/09/26 02:37:08;;;;;;;1.00;0.50;;;12.90;99.90;;;;;;4406755;32;20102;-75
2022/09/26 02:39:35;;;;;;;0.45;0.45;;;12.80;99.90;;;;;;4406304;32;20149;-75
2022/09/26 02:42:35;;;;;;;0.75;0.68;;;12.80;99.90;;;;;;4406710;32;20069;-75
2022/09/26 02:45:26;;;;;;;0.30;0.30;;;12.80;99.90;;;;;;4397773;32;20106;-76
2022/09/26 02:47:59;;;;;;;0.45;0.45;;;12.80;99.90;;;;;;4397792;32;20092;-75
2022/09/26 02:50:51;;;;;;;0.50;0.50;;;12.70;99.90;;;;;;4406471;32;20069;-75
2022/09/26 02:53:56;;;;;;;0.60;0.60;;;12.70;99.90;;;;;;4395202;32;20086;-75
2022/09/26 02:56:41;;;;;;;0.30;0.30;;;12.70;99.90;;;;;;4389991;32;20094;-75
2022/09/26 02:59:20;;;;;;;0.40;0.40;;;12.70;99.90;;;;;;4407470;32;20172;-73
2022/09/26 03:01:54;;;;;;;0.40;0.40;;;12.70;99.90;;;;;;4405351;32;20081;-74
2022/09/26 03:04:43;;;;;;;8.90;0.60;;;12.70;99.90;;;;;;4388764;32;20133;-74
2022/09/26 03:07:13;;;;;;;0.40;0.40;;;12.70;99.90;;;;;;4398208;32;20141;-74
2022/09/26 03:09:41;;;;;;;0.53;0.40;;;12.70;99.90;;;;;;4407433;32;20118;-74
2022/09/26 03:12:08;;;;;;;0.32;0.32;;;12.70;99.90;;;;;;4407050;32;20058;-74
2022/09/26 03:14:36;;;;;;;0.32;0.32;;;12.70;99.90;;;;;;4406671;32;20538;-75
2022/09/26 03:17:03;;;;;;;0.70;0.70;;;12.80;99.90;;;;;;4406229;32;20473;-75
2022/09/26 03:19:48;;;;;;;0.40;0.40;;;12.70;99.90;;;;;;4404844;32;20102;-75
2022/09/26 03:22:15;;;;;;;4.12;2.05;;;12.60;99.90;;;;;;4410942;32;20133;-74
2022/09/26 03:24:42;;;;;;;0.40;0.40;;;12.50;99.90;;;;;;4412385;32;20104;-75
2022/09/26 03:27:10;;;;;;;0.52;0.50;;;12.50;99.90;;;;;;4412538;32;20714;-75
2022/09/26 03:29:37;;;;;;;0.90;0.68;;;12.60;99.90;;;;;;4412453;32;20073;-74
2022/09/26 03:32:04;;;;;;;0.40;0.40;;;12.60;99.90;;;;;;4414055;32;20097;-74
2022/09/26 03:34:29;;;;;;;3.50;0.60;;;12.70;99.90;;;;;;4395225;32;20093;-75
2022/09/26 03:36:55;;;;;;;0.30;0.30;;;12.70;99.90;;;;;;4410552;32;20454;-75
2022/09/26 03:39:20;;;;;;;1.55;0.77;;;12.60;99.90;;;;;;4411862;32;20110;-75
2022/09/26 03:41:46;;;;;;;0.40;0.40;;;12.50;99.90;;;;;;4412554;32;20093;-75
2022/09/26 03:44:11;;;;;;;0.22;0.22;;;12.50;99.90;;;;;;4414229;32;20069;-76
2022/09/26 03:46:37;;;;;;;0.45;0.45;;;12.50;99.90;;;;;;4415654;32;20085;-75
2022/09/26 03:49:02;;;;;;;1.27;0.88;;;12.50;99.90;;;;;;4410651;32;20070;-75
2022/09/26 03:51:28;;;;;;;0.62;0.62;;;12.40;99.90;;;;;;4415249;32;20097;-75
2022/09/26 03:53:53;;;;;;;2.60;0.70;;;12.50;99.90;;;;;;4413180;32;20520;-74
2022/09/26 03:56:20;;;;;;;0.88;0.88;;;12.50;99.90;;;;;;4414479;32;20427;-75
2022/09/26 03:58:47;;;;;;;0.30;0.30;;;12.40;99.90;;;;;;4412843;32;20070;-76
2022/09/26 04:01:16;;;;;;;0.30;0.30;;;12.50;99.90;;;;;;4411734;32;20136;-75
2022/09/26 04:03:43;;;;;;;0.73;0.73;;;12.60;99.90;;;;;;4395473;32;20082;-75
2022/09/26 04:06:10;;;;;;;1.65;0.98;;;12.60;99.90;;;;;;4408966;32;20089;-74
2022/09/26 04:08:38;;;;;;;0.50;0.50;;;12.50;99.90;;;;;;4413044;32;20089;-75
2022/09/26 04:11:07;;;;;;;0.40;0.40;;;12.40;99.90;;;;;;4412853;32;20156;-75
2022/09/26 04:13:32;;;;;;;0.40;0.40;;;12.40;99.90;;;;;;4414807;32;20065;-74
2022/09/26 04:15:59;;;;;;;0.50;0.50;;;12.30;99.90;;;;;;4414006;32;20463;-75
2022/09/26 04:18:26;;;;;;;1.20;0.62;;;12.20;99.90;;;;;;4413136;32;20105;-74
2022/09/26 04:21:02;;;;;;;2.00;1.02;;;12.20;99.90;;;;;;4412268;32;20070;-74
2022/09/26 04:23:29;;;;;;;0.43;0.43;;;12.40;99.90;;;;;;4368676;32;20528;-75
2022/09/26 04:25:55;;;;;;;4.75;0.82;;;12.40;99.90;;;;;;4354703;32;20125;-75
2022/09/26 04:28:22;;;;;;;1.08;0.70;;;12.30;99.90;;;;;;4372585;32;20518;-75
2022/09/26 04:30:48;;;;;;;0.50;0.50;;;12.40;99.90;;;;;;4384395;32;20148;-75
2022/09/26 04:33:13;;;;;;;0.37;0.37;;;12.30;99.90;;;;;;4404852;32;20077;-74
2022/09/26 04:35:39;;;;;;;0.30;0.30;;;12.20;99.90;;;;;;4409383;32;20541;-76
2022/09/26 04:38:04;;;;;;;0.50;0.50;;;12.20;99.90;;;;;;4411718;32;20458;-76
2022/09/26 04:40:30;;;;;;;0.55;0.55;;;12.20;99.90;;;;;;4413787;32;20125;-74
2022/09/26 04:42:57;;;;;;;3.83;0.55;;;12.10;99.90;;;;;;4414420;32;20109;-75
2022/09/26 04:45:22;;;;;;;0.37;0.37;;;12.00;99.90;;;;;;4416132;32;20112;-75
2022/09/26 04:47:47;;;;;;;2.08;1.08;;;12.00;99.90;;;;;;4415909;32;20120;-74
2022/09/26 04:50:13;;;;;;;1.87;0.95;;;12.00;99.90;;;;;;4414361;32;20090;-75
2022/09/26 04:52:38;;;;;;;0.35;0.35;;;12.10;99.90;;;;;;4390287;32;20097;-75
2022/09/26 04:55:04;;;;;;;0.60;0.60;;;12.10;99.90;;;;;;4387721;32;20461;-75
2022/09/26 04:57:30;;;;;;;0.40;0.40;;;12.00;99.90;;;;;;4413750;32;20197;-75
2022/09/26 04:59:56;;;;;;;1.37;1.10;;;11.90;99.90;;;;;;4409990;32;20074;-75
2022/09/26 05:02:21;;;;;;;0.30;0.30;;;11.90;99.90;;;;;;4396093;32;20825;-75
2022/09/26 05:04:47;;;;;;;1.10;0.40;;;11.90;99.90;;;;;;4349561;32;20633;-75
2022/09/26 05:07:14;;;;;;;0.32;0.32;;;11.80;99.90;;;;;;4358237;32;21304;-75
2022/09/26 05:09:41;;;;;;;0.40;0.40;;;11.70;99.90;;;;;;4366601;32;20066;-75
2022/09/26 05:12:07;;;;;;;1.15;1.08;;;11.70;99.90;;;;;;4378310;32;20137;-74
2022/09/26 05:14:34;;;;;;;0.62;0.62;;;11.80;99.90;;;;;;4391687;32;20072;-75
2022/09/26 05:17:01;;;;;;;0.50;0.50;;;11.80;99.90;;;;;;4388148;32;20772;-75
2022/09/26 05:19:27;;;;;;;0.45;0.45;;;11.80;99.90;;;;;;4313705;32;20386;-75
2022/09/26 05:21:53;;;;;;;0.30;0.30;;;11.80;99.90;;;;;;4284262;32;21329;-75
2022/09/26 05:26:18;;;;;;;11.30;0.75;;;11.80;99.90;;;;;;4287871;32;20411;-75
2022/09/26 05:27:06;;;;;;;0.30;0.30;;;11.80;99.90;;;;;;4323582;32;20726;-75
2022/09/26 05:29:31;;;;;;;0.40;0.40;;;11.80;99.90;;;;;;4348311;32;20535;-75
2022/09/26 05:31:58;;;;;;;0.50;0.50;;;11.70;99.90;;;;;;4311978;32;20293;-75
2022/09/26 05:34:25;;;;;;;2.62;0.50;;;11.70;99.90;;;;;;4303627;32;20324;-75
2022/09/26 05:36:52;;;;;;;0.35;0.35;;;11.80;99.90;;;;;;4305266;32;20318;-74
2022/09/26 05:41:18;;;;;;;1.55;0.62;;;11.70;99.90;;;;;;4344693;32;20764;-75
2022/09/26 05:42:05;;;;;;;1.85;0.80;;;11.80;99.90;;;;;;4347401;32;20224;-75
2022/09/26 05:44:31;;;;;;;0.40;0.40;;;11.70;99.90;;;;;;4383195;32;20077;-75
2022/09/26 05:46:57;;;;;;;1.17;0.77;;;11.60;99.90;;;;;;4379645;32;20086;-75
2022/09/26 05:49:24;;;;;;;1.65;1.15;;;11.70;99.90;;;;;;4374115;32;20978;-76
2022/09/26 05:51:49;;;;;;;0.40;0.40;;;11.70;99.90;;;;;;4374243;32;20097;-75
2022/09/26 05:54:15;;;;;;;4.50;1.17;;;11.70;99.90;;;;;;4368436;32;20093;-75
2022/09/26 05:56:41;;;;;;;0.45;0.45;;;11.80;99.90;;;;;;4378771;32;20204;-76
2022/09/26 05:59:09;;;;;;;0.30;0.30;;;11.90;99.90;;;;;;4375428;32;20464;-75
2022/09/26 06:01:35;;;;;;;1.02;0.90;;;12.00;99.90;;;;;;4338066;32;20362;-76
2022/09/26 06:04:01;;;;;;;1.10;0.50;;;11.90;99.90;;;;;;4337120;32;20202;-75
2022/09/26 06:06:28;;;;;;;0.32;0.32;;;11.90;99.90;;;;;;4341418;32;20310;-76
2022/09/26 06:08:54;;;;;;;0.62;0.62;;;11.90;99.90;;;;;;4362205;32;20197;-75
2022/09/26 06:11:23;;;;;;;2.05;1.17;;;12.00;99.90;;;;;;4367803;32;20451;-75
2022/09/26 06:13:49;;;;;;;0.50;0.50;;;12.00;99.90;;;;;;4369858;32;21783;-75
2022/09/26 06:16:18;;;;;;;0.88;0.80;;;12.00;99.90;;;;;;4359440;32;20280;-76
2022/09/26 06:18:45;;;;;;;0.50;0.50;;;12.10;99.90;;;;;;4365041;32;20769;-75
2022/09/26 06:21:13;;;;;;;4.75;1.00;;;12.20;99.90;;;;;;4367448;32;20124;-75
2022/09/26 06:23:39;;;;;;;1.45;0.90;;;12.20;99.90;;;;;;4369590;32;20533;-75
2022/09/26 06:26:07;;;;;;;0.37;0.37;;;12.10;99.90;;;;;;4372514;32;20156;-75
2022/09/26 06:28:34;;;;;;;0.40;0.40;;;12.20;99.90;;;;;;4364895;32;21064;-76
2022/09/26 06:31:06;;;;;;;3.62;1.85;;;12.20;99.90;;;;;;4357357;32;20252;-75
2022/09/26 06:33:32;;;;;;;0.57;0.57;;;12.30;99.90;;;;;;4352315;32;20082;-75
2022/09/26 06:36:00;;;;;;;0.40;0.40;;;12.40;99.90;;;;;;4358266;32;20507;-75
2022/09/26 06:38:27;;;;;;;0.40;0.40;;;12.30;99.90;;;;;;4368818;32;22967;-75
2022/09/26 06:40:52;;;;;;;0.75;0.60;;;12.30;99.90;;;;;;4376102;32;20104;-75
2022/09/26 06:43:18;;;;;;;0.57;0.57;;;12.40;99.90;;;;;;4378544;32;20122;-76
2022/09/26 06:45:44;;;;;;;0.40;0.40;;;12.60;99.90;;;;;;4373724;32;20109;-76
2022/09/26 06:48:12;;;;;;;0.60;0.60;;;12.60;99.90;;;;;;4368915;32;20207;-76
2022/09/26 06:50:37;;;;;;;0.93;0.60;;;12.60;99.90;;;;;;4366738;32;20315;-77
2022/09/26 06:53:03;;;;;;;0.40;0.40;;;12.70;99.90;;;;;;4375138;32;20233;-77
2022/09/26 06:55:29;;;;;;;0.40;0.40;;;12.70;99.90;;;;;;4385710;32;20156;-75
2022/09/26 06:57:54;;;;;;;0.60;0.60;;;12.70;99.90;;;;;;4382134;32;20107;-77
2022/09/26 07:00:20;;;;;;;1.42;0.57;;;12.70;99.90;;;;;;4367748;32;20092;-76
2022/09/26 07:02:49;;;;;;;0.20;0.20;;;12.70;99.90;;;;;;4379911;32;20104;-75
2022/09/26 07:05:15;;;;;;;0.40;0.40;;;12.70;99.90;;;;;;4364725;32;20612;-76
2022/09/26 07:07:42;;;;;;;0.45;0.45;;;12.70;99.90;;;;;;4372936;32;20156;-77
2022/09/26 07:10:09;;;;;;;1.12;0.52;;;12.80;99.90;;;;;;4382230;32;20073;-79
2022/09/26 07:12:39;;;;;;;1.15;1.05;;;12.80;99.90;;;;;;4391516;32;20108;-76
2022/09/26 07:15:05;;;;;;;0.62;0.60;;;12.80;99.90;;;;;;4384911;32;20122;-77
2022/09/26 07:17:30;;;;;;;1.85;0.70;;;12.90;99.90;;;;;;4376569;32;20829;-77
2022/09/26 07:19:56;;;;;;;0.47;0.47;;;13.00;99.90;;;;;;4372155;32;20406;-77
2022/09/26 07:22:21;;;;;;;0.77;0.77;;;13.10;99.90;;;;;;4372463;32;21757;-77
2022/09/26 07:24:47;;;;;;;0.50;0.50;;;13.20;99.90;;;;;;4372171;32;20070;-77
2022/09/26 07:27:13;;;;;;;0.60;0.60;;;13.30;99.90;;;;;;4368390;32;20233;-77
2022/09/26 07:29:38;;;;;;;0.30;0.30;;;13.40;99.90;;;;;;4351201;32;20696;-76
2022/09/26 07:32:04;;;;;;;0.60;0.60;;;13.40;99.90;;;;;;4342801;32;20231;-76
2022/09/26 07:34:30;;;;;;;0.40;0.40;;;13.50;99.90;;;;;;4356998;32;21193;-75
2022/09/26 07:36:55;;;;;;;0.45;0.45;;;13.50;99.90;;;;;;4368648;32;20706;-76
2022/09/26 07:39:21;;;;;;;0.40;0.40;;;13.50;99.90;;;;;;4386425;32;20195;-76
2022/09/26 07:41:47;;;;;;;2.75;1.20;;;13.60;99.90;;;;;;4409036;27;21136;-63
2022/09/26 07:44:13;;;;;;;0.37;0.37;;;13.60;99.90;;;;;;4393853;32;20069;-63
2022/09/26 07:50:24;;;;;;;0.37;0.37;;;13.80;99.90;;;;;;4355453;32;20780;-66
2022/09/26 07:52:10;;;;;;;0.37;0.37;;;13.90;99.90;;;;;;4347018;32;20378;-65
2022/09/26 07:54:35;;;;;;;0.45;0.45;;;13.90;99.90;;;;;;4373263;32;20089;-64
2022/09/26 07:57:03;;;;;;;0.43;0.43;;;14.00;99.90;;;;;;4380091;32;20096;-64
2022/09/26 07:59:30;;;;;;;2.05;0.80;;;14.00;99.90;;;;;;4366436;32;20570;-65
2022/09/26 08:01:56;;;;;;;0.40;0.40;;;14.10;99.90;;;;;;4365346;32;20233;-65
2022/09/26 08:04:22;;;;;;;0.85;0.40;;;14.10;99.90;;;;;;4362747;32;20792;-64
2022/09/26 08:06:48;;;;;;;0.73;0.55;;;14.10;99.90;;;;;;4368795;32;20683;-65
2022/09/26 08:09:14;;;;;;;0.30;0.30;;;14.10;99.90;;;;;;4380991;32;20101;-65
2022/09/26 08:11:40;;;;;;;0.50;0.50;;;14.10;99.90;;;;;;4384769;32;20085;-65
2022/09/26 08:14:06;;;;;;;0.40;0.40;;;14.20;99.90;;;;;;4378566;32;20128;-64
2022/09/26 08:16:31;;;;;;;0.47;0.47;;;14.30;99.90;;;;;;4376832;32;20801;-65
2022/09/26 08:18:57;;;;;;;0.50;0.50;;;14.30;99.90;;;;;;4380063;32;21133;-65
2022/09/26 08:21:23;;;;;;;0.40;0.40;;;14.30;99.90;;;;;;4391254;32;20073;-65
2022/09/26 08:23:48;;;;;;;1.85;0.60;;;14.30;99.90;;;;;;4378458;32;20166;-64
2022/09/26 08:26:14;;;;;;;0.37;0.37;;;14.40;99.90;;;;;;4379472;32;20137;-66
2022/09/26 08:28:41;;;;;;;0.37;0.37;;;14.50;99.90;;;;;;4380109;32;20295;-67
2022/09/26 08:31:07;;;;;;;2.72;0.95;;;14.50;99.90;;;;;;4374199;32;20093;-68
2022/09/26 08:33:34;;;;;;;0.47;0.47;;;14.50;99.90;;;;;;4367554;32;85754;-67
2022/09/26 08:36:06;;;;;;;0.45;0.45;;;14.50;99.90;;;;;;4374205;32;20113;-64
2022/09/26 08:38:32;;;;;;;0.68;0.68;;;14.60;99.90;;;;;;4377402;32;20097;-67
2022/09/26 08:41:08;;;;;;;0.43;0.43;;;14.60;99.90;;;;;;4384024;32;20232;-66
2022/09/26 08:44:15;;;;;;;0.50;0.50;;;14.60;99.90;;;;;;4383788;32;20194;-66
2022/09/26 08:47:05;;;;;;;0.45;0.45;;;14.70;99.90;;;;;;4374334;32;20131;-66
2022/09/26 08:49:53;;;;;;;0.30;0.30;;;14.70;99.90;;;;;;4360447;32;20429;-66
2022/09/26 08:52:44;;;;;;;0.73;0.73;;;14.80;99.90;;;;;;4373536;32;20142;-66
2022/09/26 08:55:30;;;;;;;0.40;0.40;;;14.80;99.90;;;;;;4359506;32;20077;-66
2022/09/26 08:58:17;;;;;;;0.50;0.50;;;14.80;99.90;;;;;;4375105;32;20590;-65
2022/09/26 09:00:44;;;;;;;0.47;0.47;;;14.80;99.90;;;;;;4367498;32;20173;-66
2022/09/26 09:03:23;;;;;;;0.35;0.35;;;14.80;99.90;;;;;;4361430;32;20302;-66
2022/09/26 09:05:52;;;;;;;0.50;0.50;;;14.90;99.90;;;;;;4381119;32;20180;-66
2022/09/26 09:08:22;;;;;;;0.35;0.35;;;15.00;99.90;;;;;;4374470;32;20118;-66
2022/09/26 09:11:13;;;;;;;0.82;0.82;;;15.30;99.90;;;;;;4366015;32;20081;-67
2022/09/26 09:13:54;;;;;;;0.50;0.50;;;15.40;99.90;;;;;;4374642;32;20125;-68
2022/09/26 09:16:52;;;;;;;0.35;0.35;;;15.30;99.90;;;;;;4381372;32;20084;-67
2022/09/26 09:19:33;;;;;;;0.55;0.55;;;15.10;99.90;;;;;;4353937;32;20328;-67
2022/09/26 09:22:22;;;;;;;0.30;0.30;;;15.10;99.90;;;;;;4354224;32;20926;-67
2022/09/26 09:25:20;;;;;;;1.45;0.82;;;15.10;99.90;;;;;;4325920;32;20279;-67
2022/09/26 09:28:14;;;;;;;0.40;0.40;;;15.20;99.90;;;;;;4348726;32;20195;-67
2022/09/26 09:30:54;;;;;;;0.40;0.40;;;15.40;99.90;;;;;;4346039;32;20089;-66
2022/09/26 09:33:25;;;;;;;0.40;0.40;;;15.70;99.90;;;;;;4349599;32;20401;-65
2022/09/26 09:36:05;;;;;;;18.20;0.55;;;15.70;99.90;;;;;;4357547;32;20122;-66
2022/09/26 09:38:34;;;;;;;0.30;0.30;;;15.60;99.90;;;;;;4367626;32;20121;-63
2022/09/26 09:41:19;;;;;;;4.22;0.70;;;15.50;99.90;;;;;;4365433;32;20367;-66
2022/09/26 09:43:56;;;;;;;0.60;0.60;;;15.60;99.90;;;;;;4379070;32;20544;-63
2022/09/26 09:46:27;;;;;;;0.40;0.40;;;15.60;99.90;;;;;;4362773;32;20745;-64
2022/09/26 09:49:01;;;;;;;0.40;0.40;;;15.50;99.90;;;;;;4369041;32;22946;-63
2022/09/26 09:51:30;;;;;;;0.82;0.82;;;15.30;99.90;;;;;;4365240;32;20116;-64
2022/09/26 09:54:20;;;;;;;0.50;0.50;;;15.40;99.90;;;;;;4368900;32;20502;-64
2022/09/26 09:57:26;;;;;;;0.40;0.40;;;15.60;99.90;;;;;;4384994;32;21409;-64
2022/09/26 10:00:11;;;;;;;0.30;0.30;;;15.70;99.90;;;;;;4358012;32;20296;-63
2022/09/26 10:03:00;;;;;;;0.30;0.30;;;15.80;99.90;;;;;;4371919;32;20101;-64
2022/09/26 10:05:45;;;;;;;0.75;0.75;;;16.00;99.90;;;;;;4354726;32;20112;-65
2022/09/26 10:08:16;;;;;;;0.30;0.30;;;16.20;99.90;;;;;;4381812;32;20496;-65
2022/09/26 10:11:07;;;;;;;0.30;0.30;;;16.40;99.90;;;;;;4372515;32;20149;-65
2022/09/26 10:13:34;;;;;;;0.30;0.30;;;16.60;99.90;;;;;;4382166;32;20139;-64
2022/09/26 10:16:03;;;;;;;1.08;0.77;;;16.90;99.90;;;;;;4371863;32;20176;-64
2022/09/26 10:18:30;;;;;;;0.40;0.40;;;16.90;99.90;;;;;;4362659;32;21454;-64
2022/09/26 10:21:01;;;;;;;0.35;0.35;;;17.00;99.90;;;;;;4360637;32;21117;-63
2022/09/26 10:23:45;;;;;;;0.40;0.40;;;17.00;99.90;;;;;;4360242;32;20252;-64
2022/09/26 10:26:13;;;;;;;0.50;0.50;;;17.00;99.90;;;;;;4379126;32;20105;-65
2022/09/26 10:28:55;;;;;;;2.17;0.60;;;16.90;99.90;;;;;;4382680;32;20656;-64
2022/09/26 10:31:28;;;;;;;0.32;0.32;;;16.90;99.90;;;;;;4374920;32;20122;-65
2022/09/26 10:34:04;;;;;;;0.30;0.30;;;16.70;99.90;;;;;;4372258;32;20094;-65
2022/09/26 10:36:33;;;;;;;0.40;0.40;;;16.60;99.90;;;;;;4391918;32;20559;-65
2022/09/26 10:41:14;;;;;;;0.40;0.40;;;16.50;99.90;;;;;;4386390;32;20088;-66
2022/09/26 10:42:00;;;;;;;0.50;0.50;;;16.50;99.90;;;;;;4386125;32;20396;-64
2022/09/26 10:44:35;;;;;;;0.75;0.73;;;16.30;99.90;;;;;;4392042;32;20567;-65
2022/09/26 10:47:07;;;;;;;0.50;0.50;;;16.20;99.90;;;;;;4390489;32;20152;-65
2022/09/26 10:49:39;;;;;;;0.32;0.32;;;16.20;99.90;;;;;;4369616;32;20101;-64
2022/09/26 10:52:13;;;;;;;0.30;0.30;;;16.30;99.90;;;;;;4375505;32;20298;-65
2022/09/26 10:54:47;;;;;;;0.40;0.40;;;16.30;99.90;;;;;;4361639;32;20239;-65
2022/09/26 10:57:21;;;;;;;0.37;0.37;;;16.30;99.90;;;;;;4371173;32;20077;-65
2022/09/26 10:59:48;;;;;;;0.40;0.40;;;16.30;99.90;;;;;;4367486;32;20105;-65
2022/09/26 11:02:20;;;;;;;0.30;0.30;;;16.30;99.90;;;;;;4378859;32;20783;-65
2022/09/26 11:06:02;;;;;;;0.30;0.30;;;16.30;99.90;;;;;;4369065;32;20522;-65
2022/09/26 11:07:37;;;;;;;0.75;0.73;;;16.30;99.90;;;;;;4377170;32;20193;-65
2022/09/26 11:10:10;;;;;;;0.60;0.60;;;16.40;99.90;;;;;;4385701;32;20509;-65
2022/09/26 11:12:38;;;;;;;0.30;0.30;;;16.50;99.90;;;;;;4383190;32;20172;-66
2022/09/26 11:15:10;;;;;;;0.30;0.30;;;16.40;99.90;;;;;;4378881;32;20100;-65
2022/09/26 11:17:43;;;;;;;0.40;0.40;;;16.40;99.90;;;;;;4375585;32;20085;-65
2022/09/26 11:20:16;;;;;;;0.20;0.20;;;16.40;99.90;;;;;;4351245;32;20847;-65
2022/09/26 11:22:52;;;;;;;0.30;0.30;;;16.50;99.90;;;;;;4358338;32;20165;-64
2022/09/26 11:25:27;;;;;;;0.35;0.35;;;16.50;99.90;;;;;;4372993;32;20196;-65
2022/09/26 11:28:16;;;;;;;0.30;0.30;;;16.50;99.90;;;;;;4377067;32;20106;-65
2022/09/26 11:30:47;;;;;;;0.30;0.30;;;16.80;99.90;;;;;;4363290;32;20240;-65
2022/09/26 11:33:17;;;;;;;0.43;0.43;;;17.10;99.90;;;;;;4371672;32;20126;-65
2022/09/26 11:36:09;;;;;;;4.03;1.27;;;17.10;99.90;;;;;;4372237;32;20109;-66
2022/09/26 11:38:45;;;;;;;1.17;1.08;;;17.50;99.90;;;;;;4363406;32;20105;-65
2022/09/26 11:41:35;;;;;;;0.30;0.30;;;17.80;99.90;;;;;;4360718;32;20173;-66
2022/09/26 11:44:40;;;;;;;0.50;0.50;;;17.80;99.90;;;;;;4361981;32;20292;-65
2022/09/26 11:47:47;;;;;;;0.43;0.43;;;17.50;99.90;;;;;;4338732;32;20406;-66
2022/09/26 11:50:35;;;;;;;0.45;0.45;;;17.40;99.90;;;;;;4337109;32;20105;-66
2022/09/26 11:53:27;;;;;;;0.50;0.50;;;17.20;99.90;;;;;;4357392;32;20113;-65
2022/09/26 11:56:32;;;;;;;0.40;0.40;;;17.10;99.90;;;;;;4364036;32;20117;-66
2022/09/26 11:59:16;;;;;;;0.40;0.40;;;16.90;99.90;;;;;;4370990;32;20611;-65
2022/09/26 12:02:03;;;;;;;0.35;0.35;;;16.70;99.90;;;;;;4374126;32;20225;-66
2022/09/26 12:04:56;;;;;;;0.40;0.40;;;16.60;99.90;;;;;;4359101;32;20730;-66
2022/09/26 12:07:38;;;;;;;2.92;0.60;;;16.70;99.90;;;;;;4375298;32;20592;-65
2022/09/26 12:10:17;;;;;;;0.50;0.50;;;16.90;99.90;;;;;;4388885;32;20089;-64
2022/09/26 12:13:00;;;;;;;0.30;0.30;;;17.00;99.90;;;;;;4366534;32;20442;-64
2022/09/26 12:15:32;;;;;;;1.90;1.60;;;17.40;99.90;;;;;;4376748;32;20109;-65
2022/09/26 12:18:24;;;;;;;1.02;0.50;;;17.80;99.90;;;;;;4369294;32;20101;-65
2022/09/26 12:21:03;;;;;;;0.40;0.40;;;18.50;99.90;;;;;;4345431;32;20141;-64
2022/09/26 12:23:36;;;;;;;0.30;0.30;;;19.10;99.90;;;;;;4358771;32;20505;-65
2022/09/26 12:26:13;;;;;;;0.52;0.52;;;19.10;99.90;;;;;;4362412;32;20615;-65
2022/09/26 12:29:18;;;;;;;0.40;0.40;;;18.40;99.90;;;;;;4374017;32;20742;-64
2022/09/26 12:32:13;;;;;;;0.50;0.50;;;18.00;99.90;;;;;;4309838;32;20112;-65
2022/09/26 12:34:54;;;;;;;0.30;0.30;;;17.70;99.90;;;;;;4333244;32;20420;-66
2022/09/26 12:37:39;;;;;;;;;;;17.70;99.90;;;;;;4354872;32;20359;-65
2022/09/26 12:40:20;;;;;;;0.30;0.30;;;17.60;99.90;;;;;;4355691;32;20362;-65
2022/09/26 12:43:12;;;;;;;0.80;0.80;;;17.50;99.90;;;;;;4371053;32;20208;-65
2022/09/26 12:46:06;;;;;;;0.28;0.28;;;17.50;99.90;;;;;;4393193;32;20181;-64
2022/09/26 12:49:01;;;;;;;0.50;0.50;;;17.40;99.90;;;;;;4387013;32;20320;-65
2022/09/26 12:51:40;;;;;;;0.40;0.40;;;17.20;99.90;;;;;;4351206;32;20279;-64
2022/09/26 12:54:32;;;;;;;0.40;0.40;;;17.20;99.90;;;;;;4356301;32;20086;-64
2022/09/26 12:57:21;;;;;;;0.40;0.40;;;17.20;99.90;;;;;;4377133;32;20751;-64
2022/09/26 13:00:11;;;;;;;0.40;0.40;;;17.20;99.90;;;;;;4364798;32;20496;-63
2022/09/26 13:02:50;;;;;;;0.30;0.30;;;17.00;99.90;;;;;;4367456;32;20086;-63
2022/09/26 13:05:21;;;;;;;0.37;0.37;;;16.90;99.90;;;;;;4375788;32;20050;-63
2022/09/26 13:08:11;;;;;;;1.08;0.75;;;16.90;99.90;;;;;;4400283;32;20396;-63
2022/09/26 13:10:51;;;;;;;1.55;0.82;;;16.90;99.90;;;;;;4388286;32;20484;-63
2022/09/26 13:13:34;;;;;;;0.43;0.43;;;16.90;99.90;;;;;;4395696;32;20488;-63
2022/09/26 13:16:25;;;;;;;0.52;0.50;;;16.90;99.90;;;;;;4396119;32;20193;-63
2022/09/26 13:18:56;;;;;;;;;;;16.90;99.90;;;;;;4372917;32;20684;-65
2022/09/26 13:21:43;;;;;;;0.40;0.40;;;16.90;99.90;;;;;;4375477;32;19965;-64
2022/09/26 13:24:17;;;;;;;0.30;0.30;;;16.90;99.90;;;;;;4368585;32;20203;-65